Time;durP1;ratioP1;P1;durP2;ratioP2;P2;SDS_P1;SDS_P2;PMS_P1;PMS_P2;Temp;Humidity;BMP_temperature;BMP_pressure;BME280_temperature;BME280_humidity;BME280_pressure;Samples;Min_cycle;Max_cycle;Signal;HPM_P1;HPM_P2
2023/08/21 00:00:13;;;;;;;46.43;7.53;;;29.30;51.70;;;;;;5062416;28;20203;-75
2023/08/21 00:02:40;;;;;;;31.73;6.00;;;29.30;51.10;;;;;;5060610;28;20687;-75
2023/08/21 00:05:09;;;;;;;23.70;5.57;;;29.30;51.20;;;;;;5048947;28;20204;-75
2023/08/21 00:07:36;;;;;;;32.03;6.07;;;29.30;51.70;;;;;;5066352;28;20212;-75
2023/08/21 00:10:04;;;;;;;28.23;5.87;;;29.30;51.20;;;;;;5069763;28;20225;-75
2023/08/21 00:12:31;;;;;;;33.43;6.13;;;29.30;51.10;;;;;;5065817;28;20199;-75
2023/08/21 00:14:58;;;;;;;25.27;5.30;;;29.30;51.10;;;;;;5063892;28;20226;-75
2023/08/21 00:17:25;;;;;;;26.97;5.40;;;29.20;51.70;;;;;;5069037;28;20637;-75
2023/08/21 00:19:52;;;;;;;40.47;6.77;;;29.20;51.10;;;;;;5064539;28;20286;-75
2023/08/21 00:22:20;;;;;;;41.33;6.97;;;29.30;51.20;;;;;;5057609;28;20210;-75
2023/08/21 00:24:47;;;;;;;25.33;5.17;;;29.20;51.10;;;;;;5051781;28;20211;-75
2023/08/21 00:27:14;;;;;;;28.63;5.63;;;29.20;51.20;;;;;;5070350;28;20282;-75
2023/08/21 00:29:41;;;;;;;30.80;5.57;;;29.20;51.20;;;;;;5053573;28;20787;-75
2023/08/21 00:32:08;;;;;;;36.33;6.27;;;29.20;51.20;;;;;;5050805;28;20207;-76
2023/08/21 00:34:35;;;;;;;31.93;6.27;;;29.20;51.20;;;;;;5064508;28;20203;-75
2023/08/21 00:37:02;;;;;;;30.10;5.83;;;29.10;51.20;;;;;;5069404;28;20192;-75
2023/08/21 00:39:31;;;;;;;32.80;6.23;;;29.10;51.20;;;;;;5050677;28;20212;-75
2023/08/21 00:41:58;;;;;;;26.50;5.90;;;29.10;51.20;;;;;;5050562;28;20326;-75
2023/08/21 00:44:25;;;;;;;28.60;5.80;;;29.10;51.20;;;;;;5056144;28;20195;-75
2023/08/21 00:46:52;;;;;;;29.20;5.77;;;29.10;51.20;;;;;;5064220;28;20202;-75
2023/08/21 00:49:18;;;;;;;50.60;7.53;;;29.10;51.30;;;;;;5051600;28;20230;-75
2023/08/21 00:51:46;;;;;;;37.80;6.90;;;29.10;51.30;;;;;;5055756;28;20290;-74
2023/08/21 00:54:13;;;;;;;29.10;5.73;;;29.10;51.30;;;;;;5070506;28;20745;-75
2023/08/21 00:56:41;;;;;;;34.30;6.20;;;29.10;51.30;;;;;;5069756;28;20213;-75
2023/08/21 00:59:08;;;;;;;25.27;5.40;;;29.00;51.30;;;;;;5070167;28;20674;-75
2023/08/21 01:01:36;;;;;;;25.87;5.17;;;29.10;51.30;;;;;;5069835;28;20188;-75
2023/08/21 01:04:04;;;;;;;27.20;5.60;;;29.00;51.30;;;;;;5070183;28;20614;-74
2023/08/21 01:06:31;;;;;;;34.80;6.80;;;29.00;51.30;;;;;;5054107;28;20200;-75
2023/08/21 01:09:04;;;;;;;28.97;6.03;;;29.00;51.30;;;;;;5049742;28;20304;-74
2023/08/21 01:11:37;;;;;;;28.50;5.60;;;29.00;51.30;;;;;;5050243;28;20645;-75
2023/08/21 01:14:11;;;;;;;28.60;5.60;;;29.00;51.30;;;;;;5050212;28;20224;-74
2023/08/21 01:16:40;;;;;;;34.23;6.43;;;29.00;51.30;;;;;;5064948;28;20204;-75
2023/08/21 01:19:19;;;;;;;33.37;6.20;;;29.00;51.30;;;;;;5057019;28;20203;-75
2023/08/21 01:21:46;;;;;;;40.97;6.87;;;29.00;51.30;;;;;;5067655;28;20239;-75
2023/08/21 01:24:15;;;;;;;33.63;5.90;;;29.00;51.30;;;;;;5063183;28;20306;-75
2023/08/21 01:26:42;;;;;;;35.40;6.10;;;29.00;51.30;;;;;;5065167;28;20200;-74
2023/08/21 01:29:08;;;;;;;36.93;6.80;;;28.90;51.20;;;;;;5068190;28;20622;-75
2023/08/21 01:31:38;;;;;;;34.83;6.67;;;29.00;51.30;;;;;;5067254;28;20274;-75
2023/08/21 01:34:09;;;;;;;28.80;6.30;;;28.90;51.20;;;;;;5069340;28;20524;-75
2023/08/21 01:36:37;;;;;;;45.70;7.33;;;28.90;51.20;;;;;;5056582;28;20207;-74
2023/08/21 01:39:05;;;;;;;40.50;6.70;;;28.90;51.20;;;;;;5051403;28;20315;-74
2023/08/21 01:41:33;;;;;;;31.63;6.07;;;28.90;51.20;;;;;;5056779;28;20199;-75
2023/08/21 01:44:00;;;;;;;34.87;6.13;;;28.80;51.10;;;;;;5068374;28;20742;-75
2023/08/21 01:46:27;;;;;;;33.30;6.27;;;28.80;51.10;;;;;;5066856;28;20200;-75
2023/08/21 01:48:54;;;;;;;34.93;6.63;;;28.80;51.10;;;;;;5062331;28;20319;-74
2023/08/21 01:51:23;;;;;;;30.80;5.87;;;28.80;51.10;;;;;;5068299;28;20222;-75
2023/08/21 01:53:50;;;;;;;29.17;5.77;;;28.80;51.70;;;;;;5067684;28;20208;-75
2023/08/21 01:56:17;;;;;;;52.07;8.13;;;28.80;51.10;;;;;;5066674;28;20797;-75
2023/08/21 01:58:45;;;;;;;31.60;6.17;;;28.80;51.20;;;;;;5050418;28;20210;-75
2023/08/21 02:01:12;;;;;;;28.43;5.80;;;28.80;51.10;;;;;;5058134;28;20200;-75
2023/08/21 02:03:40;;;;;;;42.33;6.97;;;28.70;51.10;;;;;;5048687;28;20273;-75
2023/08/21 02:06:07;;;;;;;35.67;6.27;;;28.70;51.10;;;;;;5055635;28;20199;-75
2023/08/21 02:08:34;;;;;;;29.03;5.90;;;28.70;51.10;;;;;;5067596;28;20222;-75
2023/08/21 02:11:02;;;;;;;28.73;5.87;;;28.70;51.10;;;;;;5067740;28;20233;-75
2023/08/21 02:13:29;;;;;;;32.83;6.57;;;28.70;51.10;;;;;;5068240;28;20287;-75
2023/08/21 02:15:57;;;;;;;28.07;6.03;;;28.70;51.10;;;;;;5067978;28;20314;-75
2023/08/21 02:18:24;;;;;;;27.57;6.17;;;28.70;51.70;;;;;;5067677;28;20214;-75
2023/08/21 02:20:51;;;;;;;40.73;6.60;;;28.70;51.10;;;;;;5061499;28;20212;-75
2023/08/21 02:23:18;;;;;;;29.00;5.83;;;28.70;51.10;;;;;;5066755;28;20207;-75
2023/08/21 02:25:45;;;;;;;34.60;6.30;;;28.70;51.10;;;;;;5066900;28;20215;-75
2023/08/21 02:28:12;;;;;;;31.07;6.00;;;28.60;51.10;;;;;;5068268;28;20374;-75
2023/08/21 02:30:41;;;;;;;30.37;5.77;;;28.60;51.10;;;;;;5067269;28;20229;-75
2023/08/21 02:33:10;;;;;;;27.33;5.60;;;28.60;51.10;;;;;;5067651;28;20210;-75
2023/08/21 02:35:36;;;;;;;36.17;6.60;;;28.60;51.10;;;;;;5065878;28;20202;-75
2023/08/21 02:38:04;;;;;;;27.00;5.77;;;28.60;51.20;;;;;;5067407;28;20632;-75
2023/08/21 02:40:31;;;;;;;22.17;5.07;;;28.60;51.10;;;;;;5067604;28;20660;-75
2023/08/21 02:42:58;;;;;;;32.97;6.43;;;28.50;51.00;;;;;;5068281;28;20235;-75
2023/08/21 02:45:25;;;;;;;28.30;5.57;;;28.50;51.10;;;;;;5068516;28;20310;-75
2023/08/21 02:47:52;;;;;;;47.90;7.70;;;28.50;51.10;;;;;;5065956;28;20206;-75
2023/08/21 02:50:20;;;;;;;43.37;7.40;;;28.50;51.10;;;;;;5066852;28;20233;-74
2023/08/21 02:52:47;;;;;;;39.60;6.83;;;28.50;51.10;;;;;;5059778;28;20203;-74
2023/08/21 02:55:15;;;;;;;29.80;5.87;;;28.50;51.10;;;;;;5067074;28;20954;-73
2023/08/21 02:57:42;;;;;;;19.53;5.17;;;28.50;51.10;;;;;;5068104;28;20192;-73
2023/08/21 03:00:11;;;;;;;38.30;6.40;;;28.50;51.10;;;;;;5060954;28;20660;-74
2023/08/21 03:02:42;;;;;;;30.17;6.00;;;28.50;51.10;;;;;;5051122;28;20204;-74
2023/08/21 03:05:10;;;;;;;30.97;6.10;;;28.50;51.10;;;;;;5048264;28;20199;-74
2023/08/21 03:07:38;;;;;;;32.03;6.17;;;28.40;51.00;;;;;;5048111;28;20744;-74
2023/08/21 03:10:06;;;;;;;26.83;5.53;;;28.40;51.00;;;;;;5047769;28;20255;-74
2023/08/21 03:12:33;;;;;;;26.13;5.60;;;28.40;51.00;;;;;;5048195;28;20207;-74
2023/08/21 03:15:00;;;;;;;35.73;6.50;;;28.40;51.00;;;;;;5047267;28;20569;-74
2023/08/21 03:17:27;;;;;;;26.33;6.03;;;28.40;51.00;;;;;;5060842;28;20215;-74
2023/08/21 03:19:54;;;;;;;34.67;6.73;;;28.40;51.00;;;;;;5054881;28;20294;-74
2023/08/21 03:22:22;;;;;;;30.33;6.17;;;28.40;51.00;;;;;;5064574;28;20209;-74
2023/08/21 03:24:50;;;;;;;47.67;7.50;;;28.40;51.10;;;;;;5065935;28;20215;-74
2023/08/21 03:27:17;;;;;;;26.73;5.70;;;28.40;51.70;;;;;;5067023;28;20211;-74
2023/08/21 03:29:48;;;;;;;27.50;5.80;;;28.40;51.10;;;;;;5065992;28;20570;-74
2023/08/21 03:32:15;;;;;;;34.13;6.67;;;28.30;51.00;;;;;;5066915;28;20214;-74
2023/08/21 03:34:42;;;;;;;31.00;6.07;;;28.30;51.00;;;;;;5066888;28;20963;-74
2023/08/21 03:37:09;;;;;;;33.07;6.53;;;28.30;51.00;;;;;;5065735;28;20200;-74
2023/08/21 03:39:36;;;;;;;29.70;6.37;;;28.30;51.00;;;;;;5063930;28;20198;-74
2023/08/21 03:42:05;;;;;;;31.97;6.13;;;28.30;51.10;;;;;;5058328;28;20207;-74
2023/08/21 03:44:33;;;;;;;38.77;6.67;;;28.30;51.00;;;;;;5070979;28;20206;-74
2023/08/21 03:47:00;;;;;;;41.43;7.17;;;28.30;51.10;;;;;;5069964;28;20199;-74
2023/08/21 03:49:27;;;;;;;30.40;5.87;;;28.30;51.00;;;;;;5071170;28;20203;-74
2023/08/21 03:51:54;;;;;;;27.33;5.63;;;28.30;51.10;;;;;;5068103;28;20223;-74
2023/08/21 03:54:21;;;;;;;36.07;6.87;;;28.30;51.10;;;;;;5067165;28;20201;-74
2023/08/21 03:56:47;;;;;;;26.83;5.87;;;28.20;51.00;;;;;;5070413;28;20611;-74
2023/08/21 03:59:16;;;;;;;27.43;5.77;;;28.20;51.00;;;;;;5070922;28;20203;-74
2023/08/21 04:01:43;;;;;;;35.97;6.70;;;28.20;51.10;;;;;;5068737;28;20204;-74
2023/08/21 04:04:09;;;;;;;44.23;7.37;;;28.20;51.10;;;;;;5070036;28;20279;-74
2023/08/21 04:06:36;;;;;;;25.40;5.83;;;28.20;51.10;;;;;;5069704;28;20278;-74
2023/08/21 04:09:06;;;;;;;28.07;5.90;;;28.20;51.10;;;;;;5069481;28;20203;-74
2023/08/21 04:11:33;;;;;;;29.87;5.90;;;28.20;51.10;;;;;;5059442;28;20779;-74
2023/08/21 04:14:00;;;;;;;27.17;6.20;;;28.20;51.10;;;;;;5070609;28;20589;-74
2023/08/21 04:16:30;;;;;;;23.87;5.77;;;28.20;51.10;;;;;;5069992;28;20203;-74
2023/08/21 04:18:57;;;;;;;35.67;6.70;;;28.20;51.10;;;;;;5064588;28;20191;-74
2023/08/21 04:21:24;;;;;;;34.20;6.10;;;28.20;51.10;;;;;;5067361;28;20199;-73
2023/08/21 04:23:51;;;;;;;24.17;5.80;;;28.20;51.10;;;;;;5069858;28;20211;-74
2023/08/21 04:26:19;;;;;;;29.47;6.10;;;28.10;51.00;;;;;;5070820;28;20290;-74
2023/08/21 04:28:46;;;;;;;23.37;5.33;;;28.20;51.10;;;;;;5069697;28;20199;-74
2023/08/21 04:31:13;;;;;;;33.70;6.73;;;28.10;51.00;;;;;;5070712;28;20231;-74
2023/08/21 04:33:41;;;;;;;32.17;6.23;;;28.10;51.10;;;;;;5069513;28;20286;-74
2023/08/21 04:36:08;;;;;;;33.13;6.33;;;28.10;51.00;;;;;;5070555;28;20725;-74
2023/08/21 04:38:35;;;;;;;26.73;6.23;;;28.10;51.30;;;;;;5069650;28;20199;-74
2023/08/21 04:41:08;;;;;;;29.47;6.17;;;28.10;51.10;;;;;;5059066;28;20199;-74
2023/08/21 04:43:35;;;;;;;33.43;6.67;;;28.10;51.10;;;;;;5059301;28;20204;-74
2023/08/21 04:46:02;;;;;;;30.20;6.18;;;28.00;51.00;;;;;;5062505;28;20476;-72
2023/08/21 04:48:29;;;;;;;29.57;6.70;;;28.00;51.10;;;;;;5063649;28;20200;-73
2023/08/21 04:50:57;;;;;;;30.83;6.07;;;28.00;51.10;;;;;;5069388;28;20231;-74
2023/08/21 04:53:24;;;;;;;34.07;6.63;;;28.00;51.10;;;;;;5069329;28;20202;-73
2023/08/21 04:55:51;;;;;;;31.17;6.40;;;28.00;51.10;;;;;;5069827;28;20195;-73
2023/08/21 04:58:18;;;;;;;30.97;6.23;;;28.00;51.10;;;;;;5066669;28;20208;-73
2023/08/21 05:00:46;;;;;;;27.33;6.37;;;28.00;51.10;;;;;;5070049;28;20203;-73
2023/08/21 05:03:13;;;;;;;94.93;11.60;;;28.00;51.00;;;;;;5053688;28;20219;-72
2023/08/21 05:05:40;;;;;;;36.50;6.63;;;28.00;51.00;;;;;;5054973;28;20195;-72
2023/08/21 05:08:08;;;;;;;45.30;8.00;;;28.00;51.10;;;;;;5069121;28;20234;-72
2023/08/21 05:10:35;;;;;;;31.33;6.60;;;28.00;51.10;;;;;;5069996;28;20326;-72
2023/08/21 05:13:04;;;;;;;32.33;6.73;;;28.00;51.00;;;;;;5069398;28;20204;-72
2023/08/21 05:15:31;;;;;;;35.60;7.07;;;27.90;51.00;;;;;;5069580;28;20698;-72
2023/08/21 05:17:58;;;;;;;25.33;5.70;;;27.90;51.00;;;;;;5065113;28;20314;-73
2023/08/21 05:20:25;;;;;;;34.90;7.30;;;27.90;51.00;;;;;;5064330;28;20303;-72
2023/08/21 05:22:52;;;;;;;31.80;6.83;;;27.90;51.70;;;;;;5068922;28;20207;-73
2023/08/21 05:25:21;;;;;;;26.20;6.47;;;27.90;51.00;;;;;;5070301;28;20225;-73
2023/08/21 05:27:47;;;;;;;29.17;6.07;;;27.90;51.10;;;;;;5070626;28;20210;-74
2023/08/21 05:30:15;;;;;;;26.17;5.67;;;27.90;51.70;;;;;;5069763;28;20207;-74
2023/08/21 05:32:42;;;;;;;32.43;6.33;;;27.90;51.10;;;;;;5068629;28;20267;-74
2023/08/21 05:35:09;;;;;;;31.70;6.63;;;27.80;51.00;;;;;;5070172;28;20643;-72
2023/08/21 05:37:36;;;;;;;49.13;8.43;;;27.80;51.10;;;;;;5066630;28;20239;-72
2023/08/21 05:40:04;;;;;;;33.80;6.50;;;27.80;51.10;;;;;;5057112;28;20208;-72
2023/08/21 05:42:32;;;;;;;28.20;6.17;;;27.80;51.10;;;;;;5069174;28;20207;-72
2023/08/21 05:44:59;;;;;;;30.03;6.67;;;27.80;51.10;;;;;;5060163;28;20202;-73
2023/08/21 05:47:26;;;;;;;20.97;5.50;;;27.80;51.10;;;;;;5067856;28;20207;-73
2023/08/21 05:49:54;;;;;;;41.30;7.77;;;27.80;51.10;;;;;;5069561;28;20406;-73
2023/08/21 05:52:22;;;;;;;35.70;7.17;;;27.80;51.40;;;;;;5054070;28;20224;-72
2023/08/21 05:54:49;;;;;;;35.57;7.03;;;27.80;51.20;;;;;;5049707;28;20204;-73
2023/08/21 05:57:16;;;;;;;33.27;6.87;;;27.80;51.10;;;;;;5051534;28;20218;-72
2023/08/21 05:59:47;;;;;;;32.47;6.73;;;27.80;51.20;;;;;;5066723;28;20211;-73
2023/08/21 06:02:14;;;;;;;26.20;6.53;;;27.80;51.20;;;;;;5065995;28;20696;-72
2023/08/21 06:04:42;;;;;;;38.70;7.77;;;27.70;51.20;;;;;;5048241;28;20203;-73
2023/08/21 06:07:10;;;;;;;32.83;6.90;;;27.70;51.20;;;;;;5049548;28;20246;-73
2023/08/21 06:09:37;;;;;;;25.33;5.77;;;27.70;51.20;;;;;;5049726;28;20279;-73
2023/08/21 06:12:04;;;;;;;36.83;7.50;;;27.70;51.20;;;;;;5049477;28;20242;-73
2023/08/21 06:14:31;;;;;;;30.03;6.50;;;27.70;51.30;;;;;;5049653;28;20581;-73
2023/08/21 06:17:01;;;;;;;29.53;6.57;;;27.70;51.30;;;;;;5049620;28;20280;-73
2023/08/21 06:19:28;;;;;;;35.47;7.30;;;27.70;51.30;;;;;;5065284;28;20321;-73
2023/08/21 06:21:55;;;;;;;33.53;6.83;;;27.70;51.30;;;;;;5049458;28;20196;-73
2023/08/21 06:24:22;;;;;;;25.53;6.10;;;27.70;51.30;;;;;;5065055;28;20290;-72
2023/08/21 06:26:49;;;;;;;34.23;7.00;;;27.70;51.30;;;;;;5069364;28;20542;-73
2023/08/21 06:29:16;;;;;;;33.00;6.93;;;27.70;51.40;;;;;;5069093;28;20195;-73
2023/08/21 06:31:43;;;;;;;41.50;7.67;;;27.70;51.40;;;;;;5068734;28;20223;-73
2023/08/21 06:34:12;;;;;;;34.83;7.30;;;27.70;51.40;;;;;;5054854;28;20207;-72
2023/08/21 06:36:39;;;;;;;32.57;7.10;;;27.70;51.40;;;;;;5053972;28;20195;-73
2023/08/21 06:39:06;;;;;;;30.37;6.67;;;27.70;51.40;;;;;;5068631;28;20192;-73
2023/08/21 06:41:33;;;;;;;32.13;6.97;;;27.70;51.50;;;;;;5068465;28;20837;-74
2023/08/21 06:44:00;;;;;;;41.57;7.87;;;27.70;51.50;;;;;;5068150;28;20207;-73
2023/08/21 06:46:27;;;;;;;28.90;6.40;;;27.70;51.60;;;;;;5068487;28;20210;-73
2023/08/21 06:48:54;;;;;;;33.57;7.07;;;27.70;51.60;;;;;;5066752;28;20214;-75
2023/08/21 06:51:22;;;;;;;29.80;6.33;;;27.70;51.60;;;;;;5065494;28;20217;-75
2023/08/21 06:53:49;;;;;;;24.60;6.20;;;27.70;51.60;;;;;;5066327;28;20204;-76
2023/08/21 06:56:17;;;;;;;21.57;5.50;;;27.70;51.60;;;;;;5066945;28;20208;-75
2023/08/21 06:58:43;;;;;;;24.73;5.90;;;27.70;51.60;;;;;;5068112;28;20745;-76
2023/08/21 07:01:10;;;;;;;25.67;5.50;;;27.70;51.70;;;;;;5068459;28;20213;-75
2023/08/21 07:03:37;;;;;;;24.37;5.83;;;27.70;51.70;;;;;;5067783;28;20199;-74
2023/08/21 07:06:04;;;;;;;30.93;6.33;;;27.70;51.70;;;;;;5066984;28;20203;-75
2023/08/21 07:08:33;;;;;;;28.13;6.07;;;27.70;51.80;;;;;;5066752;28;20209;-77
2023/08/21 07:11:04;;;;;;;27.03;5.87;;;27.70;51.70;;;;;;5064156;28;20565;-76
2023/08/21 07:13:31;;;;;;;28.13;6.23;;;27.80;51.80;;;;;;5067957;28;20218;-76
2023/08/21 07:15:58;;;;;;;32.70;6.63;;;27.80;51.80;;;;;;5061780;28;20207;-76
2023/08/21 07:18:25;;;;;;;37.80;7.23;;;27.80;52.50;;;;;;5061985;28;20283;-70
2023/08/21 07:20:53;;;;;;;27.87;6.33;;;27.80;52.00;;;;;;5061195;28;20207;-75
2023/08/21 07:23:20;;;;;;;22.40;5.87;;;27.80;52.00;;;;;;5067771;28;20722;-76
2023/08/21 07:25:48;;;;;;;30.17;6.17;;;27.80;52.00;;;;;;5059790;28;20670;-75
2023/08/21 07:28:16;;;;;;;40.40;7.00;;;27.80;52.10;;;;;;5058335;28;20200;-70
2023/08/21 07:30:43;;;;;;;23.60;5.67;;;27.90;52.20;;;;;;5054428;28;20192;-75
2023/08/21 07:33:11;;;;;;;35.63;6.53;;;27.90;52.20;;;;;;5054093;28;20310;-71
2023/08/21 07:35:38;;;;;;;26.77;5.97;;;27.90;52.40;;;;;;5053214;28;20679;-72
2023/08/21 07:38:04;;;;;;;26.67;6.73;;;27.90;52.40;;;;;;5047495;28;20281;-71
2023/08/21 07:40:31;;;;;;;27.87;6.23;;;27.90;52.50;;;;;;5047888;28;20200;-70
2023/08/21 07:43:00;;;;;;;25.60;5.87;;;28.00;52.60;;;;;;5047971;28;20244;-71
2023/08/21 07:45:27;;;;;;;28.73;6.40;;;28.00;52.60;;;;;;5048060;28;20311;-74
2023/08/21 07:47:54;;;;;;;34.20;6.83;;;28.00;52.60;;;;;;5047860;28;20200;-77
2023/08/21 07:50:21;;;;;;;37.13;7.03;;;28.00;53.20;;;;;;5047616;28;20309;-76
2023/08/21 07:52:48;;;;;;;21.10;5.80;;;28.10;52.70;;;;;;5047820;28;20783;-76
2023/08/21 07:55:15;;;;;;;32.23;6.87;;;28.10;52.60;;;;;;5047616;28;20286;-77
2023/08/21 07:57:42;;;;;;;34.83;7.40;;;28.10;52.60;;;;;;5048085;28;20218;-75
2023/08/21 08:00:12;;;;;;;30.30;6.37;;;28.20;52.70;;;;;;5051108;28;20210;-74
2023/08/21 08:02:40;;;;;;;19.90;5.97;;;28.20;52.70;;;;;;5060557;28;20199;-76
2023/08/21 08:05:07;;;;;;;21.63;5.77;;;28.20;52.70;;;;;;5053918;28;20691;-70
2023/08/21 08:07:34;;;;;;;24.13;6.17;;;28.20;52.90;;;;;;5056205;28;20306;-73
2023/08/21 08:10:01;;;;;;;32.40;7.13;;;28.30;52.80;;;;;;5047657;28;20674;-74
2023/08/21 08:12:28;;;;;;;40.37;7.40;;;28.30;52.90;;;;;;5067273;28;20330;-74
2023/08/21 08:14:55;;;;;;;39.27;7.50;;;28.30;52.80;;;;;;5067089;28;20242;-74
2023/08/21 08:17:24;;;;;;;30.57;6.50;;;28.30;52.80;;;;;;5068167;28;20295;-75
2023/08/21 08:19:51;;;;;;;31.13;6.27;;;28.40;52.90;;;;;;5067862;28;20690;-74
2023/08/21 08:22:17;;;;;;;30.60;6.30;;;28.40;52.80;;;;;;5068069;28;20282;-75
2023/08/21 08:24:44;;;;;;;24.30;5.77;;;28.40;52.90;;;;;;5067908;28;20239;-74
2023/08/21 08:27:11;;;;;;;20.80;5.97;;;28.50;52.90;;;;;;5068186;28;20214;-76
2023/08/21 08:29:38;;;;;;;26.40;6.17;;;28.50;53.00;;;;;;5071179;28;20196;-75
2023/08/21 08:32:07;;;;;;;22.67;5.83;;;28.50;52.90;;;;;;5071280;28;20223;-73
2023/08/21 08:34:35;;;;;;;34.00;7.10;;;28.60;52.90;;;;;;5067631;28;20206;-74
2023/08/21 08:37:05;;;;;;;32.53;6.87;;;28.60;52.90;;;;;;5071402;28;20279;-75
2023/08/21 08:39:32;;;;;;;28.27;6.33;;;28.60;52.90;;;;;;5071222;28;20638;-74
2023/08/21 08:42:03;;;;;;;20.00;5.23;;;28.70;53.00;;;;;;5071646;28;20303;-73
2023/08/21 08:44:31;;;;;;;27.37;6.23;;;28.70;53.00;;;;;;5071134;28;20227;-75
2023/08/21 08:47:00;;;;;;;21.00;5.73;;;28.70;53.00;;;;;;5065656;28;20290;-74
2023/08/21 08:49:27;;;;;;;34.47;6.83;;;28.70;53.00;;;;;;5070790;28;20238;-74
2023/08/21 08:51:56;;;;;;;25.60;6.10;;;28.70;53.00;;;;;;5066956;28;20239;-74
2023/08/21 08:54:25;;;;;;;24.93;6.23;;;28.70;53.10;;;;;;5051325;28;20239;-75
2023/08/21 08:56:52;;;;;;;30.27;6.60;;;28.80;53.10;;;;;;5050980;28;20208;-75
2023/08/21 08:59:19;;;;;;;32.77;6.80;;;28.80;53.10;;;;;;5051019;28;20232;-79
2023/08/21 09:01:46;;;;;;;29.17;6.73;;;28.80;53.10;;;;;;5050825;28;20290;-75
2023/08/21 09:04:13;;;;;;;40.03;7.10;;;28.80;53.10;;;;;;5053229;28;20324;-79
2023/08/21 09:06:40;;;;;;;24.10;5.53;;;28.80;53.10;;;;;;5070919;28;20740;-74
2023/08/21 09:09:10;;;;;;;23.33;6.07;;;28.80;53.20;;;;;;5071385;28;20282;-76
2023/08/21 09:11:43;;;;;;;22.20;5.90;;;28.80;53.30;;;;;;5069654;28;20224;-75
2023/08/21 09:14:11;;;;;;;31.93;6.33;;;28.90;53.20;;;;;;5070647;28;20278;-75
2023/08/21 09:16:38;;;;;;;25.90;5.60;;;28.90;53.20;;;;;;5071065;28;20287;-75
2023/08/21 09:19:05;;;;;;;23.67;5.97;;;29.00;53.20;;;;;;5070862;28;20326;-75
2023/08/21 09:21:32;;;;;;;28.07;6.10;;;29.00;53.20;;;;;;5070913;28;20275;-75
2023/08/21 09:24:00;;;;;;;29.73;6.13;;;29.00;53.20;;;;;;5070745;28;20211;-76
2023/08/21 09:26:31;;;;;;;26.63;5.87;;;29.00;53.20;;;;;;5070766;28;20286;-75
2023/08/21 09:29:00;;;;;;;26.47;6.00;;;29.10;53.30;;;;;;5070543;28;20663;-75
2023/08/21 09:31:31;;;;;;;29.67;6.70;;;29.10;53.30;;;;;;5070699;28;20203;-74
2023/08/21 09:34:00;;;;;;;24.90;5.97;;;29.10;53.30;;;;;;5069497;28;20778;-78
2023/08/21 09:36:28;;;;;;;26.87;6.00;;;29.10;53.30;;;;;;5070818;28;20671;-76
2023/08/21 09:38:55;;;;;;;28.97;6.23;;;29.10;53.30;;;;;;5070736;28;20203;-79
2023/08/21 09:41:23;;;;;;;30.53;6.53;;;29.20;53.30;;;;;;5068037;28;20231;-75
2023/08/21 09:43:51;;;;;;;33.50;6.80;;;29.30;53.40;;;;;;5070171;28;20294;-78
2023/08/21 09:46:26;;;;;;;27.87;6.70;;;29.30;53.40;;;;;;5070566;28;20290;-75
2023/08/21 09:48:54;;;;;;;26.17;6.43;;;29.20;53.30;;;;;;5070364;28;20232;-76
2023/08/21 09:51:21;;;;;;;24.27;5.93;;;29.30;53.40;;;;;;5059079;28;20576;-79
2023/08/21 09:53:49;;;;;;;33.50;6.33;;;29.30;53.40;;;;;;5049717;28;20234;-76
2023/08/21 09:56:18;;;;;;;22.47;5.40;;;29.30;53.40;;;;;;5049852;28;20307;-75
2023/08/21 09:58:48;;;;;;;28.63;6.17;;;29.40;53.40;;;;;;5050094;28;20255;-76
2023/08/21 10:01:18;;;;;;;27.77;6.13;;;29.40;53.40;;;;;;5049946;28;20756;-75
2023/08/21 10:03:47;;;;;;;38.07;6.87;;;29.40;53.40;;;;;;5049565;28;20291;-75
2023/08/21 10:06:17;;;;;;;23.33;5.90;;;29.40;53.40;;;;;;5069836;28;20194;-75
2023/08/21 10:08:49;;;;;;;29.93;5.97;;;29.40;53.40;;;;;;5070167;28;20280;-74
2023/08/21 10:11:20;;;;;;;25.37;5.43;;;29.40;53.50;;;;;;5068936;28;20692;-76
2023/08/21 10:13:48;;;;;;;21.10;5.17;;;29.50;53.50;;;;;;5069655;28;20239;-75
2023/08/21 10:16:17;;;;;;;25.00;5.60;;;29.50;53.50;;;;;;5069775;28;20287;-77
2023/08/21 10:18:46;;;;;;;20.20;5.27;;;29.60;53.60;;;;;;5064249;28;20564;-76
2023/08/21 10:21:14;;;;;;;23.30;5.13;;;29.60;53.60;;;;;;5066780;28;20487;-68
2023/08/21 10:23:42;;;;;;;32.50;6.10;;;29.60;53.60;;;;;;5059675;28;21100;-73
2023/08/21 10:26:11;;;;;;;41.83;6.90;;;29.70;53.60;;;;;;5057836;28;20286;-81
2023/08/21 10:28:49;;;;;;;27.03;5.77;;;29.70;53.60;;;;;;5060649;28;20208;-74
2023/08/21 10:31:34;;;;;;;30.33;5.90;;;29.80;53.70;;;;;;5065680;28;20203;-74
2023/08/21 10:34:03;;;;;;;46.93;7.37;;;29.80;53.60;;;;;;5066600;28;20226;-74
2023/08/21 10:37:05;;;;;;;28.90;6.17;;;29.90;53.40;;;;;;5068192;28;20292;-74
2023/08/21 10:39:33;;;;;;;27.73;6.07;;;29.90;53.30;;;;;;5060185;28;20199;-75
2023/08/21 10:42:03;;;;;;;25.90;6.17;;;30.00;53.30;;;;;;5057265;28;20677;-74
2023/08/21 10:44:55;;;;;;;23.00;5.93;;;30.00;53.20;;;;;;5067720;28;20244;-75
2023/08/21 10:47:31;;;;;;;27.03;5.97;;;30.10;53.80;;;;;;5047491;28;20211;-74
2023/08/21 10:50:00;;;;;;;29.43;5.83;;;30.00;53.10;;;;;;5059484;28;20199;-75
2023/08/21 10:52:29;;;;;;;23.43;5.97;;;30.10;53.10;;;;;;5067786;28;20249;-74
2023/08/21 10:54:58;;;;;;;22.73;5.63;;;30.10;53.00;;;;;;5067166;28;20741;-75
2023/08/21 10:57:26;;;;;;;21.00;5.37;;;30.10;52.90;;;;;;5066116;28;20195;-74
2023/08/21 10:59:55;;;;;;;29.37;6.10;;;30.10;52.90;;;;;;5048042;28;20768;-74
2023/08/21 11:02:24;;;;;;;22.47;5.60;;;30.10;52.80;;;;;;5047256;28;20279;-73
2023/08/21 11:04:52;;;;;;;23.00;5.47;;;30.10;52.80;;;;;;5048570;28;20196;-74
2023/08/21 11:07:19;;;;;;;30.77;5.80;;;30.10;53.40;;;;;;5048519;28;20189;-72
2023/08/21 11:09:46;;;;;;;24.53;5.70;;;30.10;52.70;;;;;;5048174;28;20207;-73
2023/08/21 11:12:16;;;;;;;28.93;6.17;;;30.10;52.70;;;;;;5048304;28;20286;-74
2023/08/21 11:14:43;;;;;;;26.33;5.63;;;30.10;52.70;;;;;;5048649;28;20200;-73
2023/08/21 11:17:11;;;;;;;29.35;5.75;;;30.10;53.30;;;;;;5048409;28;20204;-75
2023/08/21 11:19:40;;;;;;;33.67;6.30;;;30.10;52.70;;;;;;5048687;28;20275;-73
2023/08/21 11:22:07;;;;;;;27.73;5.70;;;30.10;52.70;;;;;;5048431;28;20290;-73
2023/08/21 11:24:42;;;;;;;27.20;5.93;;;30.10;52.70;;;;;;5047908;28;20222;-73
2023/08/21 11:27:10;;;;;;;20.87;5.10;;;30.10;52.70;;;;;;5050345;28;20696;-75
2023/08/21 11:29:38;;;;;;;30.77;6.20;;;30.10;52.70;;;;;;5064788;28;20269;-72
2023/08/21 11:32:13;;;;;;;31.23;6.33;;;30.10;52.80;;;;;;5058786;28;20203;-71
2023/08/21 11:34:42;;;;;;;35.10;6.73;;;30.10;52.80;;;;;;5060660;28;20583;-71
2023/08/21 11:37:09;;;;;;;29.30;6.13;;;30.10;53.40;;;;;;5068038;28;20199;-71
2023/08/21 11:39:44;;;;;;;18.50;5.03;;;30.00;53.40;;;;;;5066833;28;20207;-73
2023/08/21 11:42:12;;;;;;;24.60;5.73;;;30.00;52.90;;;;;;5068233;28;20187;-72
2023/08/21 11:44:48;;;;;;;24.13;5.70;;;30.00;52.90;;;;;;5067300;28;20234;-73
2023/08/21 11:47:16;;;;;;;46.23;7.70;;;30.00;52.90;;;;;;5066543;28;20287;-75
2023/08/21 11:49:48;;;;;;;32.37;6.50;;;30.00;52.90;;;;;;5069105;28;20290;-72
2023/08/21 11:52:19;;;;;;;33.93;6.17;;;30.00;53.00;;;;;;5066882;28;20214;-69
2023/08/21 11:54:49;;;;;;;31.10;6.20;;;30.00;53.00;;;;;;5065401;28;20231;-73
2023/08/21 11:57:16;;;;;;;25.97;5.87;;;30.00;53.10;;;;;;5061504;28;20252;-69
2023/08/21 11:59:43;;;;;;;26.73;5.97;;;30.00;53.10;;;;;;5053103;28;20199;-71
2023/08/21 12:02:16;;;;;;;39.00;6.77;;;30.00;53.10;;;;;;5053510;28;20230;-72
2023/08/21 12:04:44;;;;;;;33.63;6.30;;;30.00;53.20;;;;;;5067832;28;20290;-71
2023/08/21 12:07:12;;;;;;;26.67;5.60;;;30.00;53.20;;;;;;5061955;28;20196;-73
2023/08/21 12:09:39;;;;;;;27.43;5.73;;;30.10;53.30;;;;;;5056897;28;20679;-72
2023/08/21 12:12:07;;;;;;;20.80;5.47;;;30.10;53.30;;;;;;5052648;28;20303;-74
2023/08/21 12:14:39;;;;;;;50.20;8.17;;;30.10;53.30;;;;;;5064168;28;20251;-74
2023/08/21 12:17:06;;;;;;;25.77;6.10;;;30.10;53.30;;;;;;5066146;28;20196;-75
2023/08/21 12:19:32;;;;;;;29.83;6.27;;;30.10;53.30;;;;;;5063996;28;20294;-71
2023/08/21 12:22:01;;;;;;;37.97;7.00;;;30.20;53.30;;;;;;5070529;28;20261;-78
2023/08/21 12:24:28;;;;;;;29.97;5.73;;;30.20;53.30;;;;;;5069651;28;20233;-76
2023/08/21 12:26:55;;;;;;;25.03;6.03;;;30.20;53.40;;;;;;5069309;28;20270;-77
2023/08/21 12:29:22;;;;;;;30.83;6.00;;;30.20;53.40;;;;;;5071250;28;20566;-79
2023/08/21 12:31:49;;;;;;;28.37;6.43;;;30.20;53.30;;;;;;5071029;28;20652;-77
2023/08/21 12:34:16;;;;;;;32.20;6.43;;;30.20;53.30;;;;;;5068936;28;20298;-75
2023/08/21 12:36:43;;;;;;;26.80;5.87;;;30.30;53.40;;;;;;5069973;28;20289;-77
2023/08/21 12:39:11;;;;;;;26.50;6.20;;;30.30;53.40;;;;;;5049889;28;20200;-79